sensor_id;sensor_type;location;lat;lon;timestamp;P1;durP1;ratioP1;P2;durP2;ratioP2
9815;SDS011;4947;44.526;11.360;2022-11-20T00:00:51;70.82;;;32.97;;
9815;SDS011;4947;44.526;11.360;2022-11-20T00:03:20;64.05;;;30.17;;
9815;SDS011;4947;44.526;11.360;2022-11-20T00:05:47;68.50;;;32.95;;
9815;SDS011;4947;44.526;11.360;2022-11-20T00:08:15;68.57;;;31.00;;
9815;SDS011;4947;44.526;11.360;2022-11-20T00:10:43;64.78;;;31.73;;
9815;SDS011;4947;44.526;11.360;2022-11-20T00:13:10;70.43;;;30.95;;
9815;SDS011;4947;44.526;11.360;2022-11-20T00:15:37;73.75;;;33.90;;
9815;SDS011;4947;44.526;11.360;2022-11-20T00:18:05;66.22;;;29.38;;
9815;SDS011;4947;44.526;11.360;2022-11-20T00:20:52;61.30;;;30.70;;
9815;SDS011;4947;44.526;11.360;2022-11-20T00:23:19;60.47;;;28.88;;
9815;SDS011;4947;44.526;11.360;2022-11-20T00:25:47;64.63;;;29.83;;
9815;SDS011;4947;44.526;11.360;2022-11-20T00:28:14;65.10;;;30.10;;
9815;SDS011;4947;44.526;11.360;2022-11-20T00:30:42;57.15;;;28.98;;
9815;SDS011;4947;44.526;11.360;2022-11-20T00:33:09;66.03;;;30.25;;
9815;SDS011;4947;44.526;11.360;2022-11-20T00:35:37;70.90;;;30.77;;
9815;SDS011;4947;44.526;11.360;2022-11-20T00:38:06;58.88;;;29.70;;
9815;SDS011;4947;44.526;11.360;2022-11-20T00:40:33;72.75;;;30.88;;
9815;SDS011;4947;44.526;11.360;2022-11-20T00:43:00;63.55;;;29.52;;
9815;SDS011;4947;44.526;11.360;2022-11-20T00:45:28;61.63;;;31.67;;
9815;SDS011;4947;44.526;11.360;2022-11-20T00:47:55;67.80;;;29.05;;
9815;SDS011;4947;44.526;11.360;2022-11-20T00:50:23;63.20;;;29.20;;
9815;SDS011;4947;44.526;11.360;2022-11-20T00:52:50;63.08;;;31.25;;
9815;SDS011;4947;44.526;11.360;2022-11-20T00:55:20;60.85;;;29.77;;
9815;SDS011;4947;44.526;11.360;2022-11-20T00:57:47;60.78;;;28.90;;
9815;SDS011;4947;44.526;11.360;2022-11-20T01:00:15;54.05;;;29.08;;
9815;SDS011;4947;44.526;11.360;2022-11-20T01:02:42;60.58;;;29.20;;
9815;SDS011;4947;44.526;11.360;2022-11-20T01:05:13;62.38;;;28.15;;
9815;SDS011;4947;44.526;11.360;2022-11-20T01:07:40;53.25;;;26.48;;
9815;SDS011;4947;44.526;11.360;2022-11-20T01:10:08;43.78;;;25.85;;
9815;SDS011;4947;44.526;11.360;2022-11-20T01:15:12;64.20;;;27.70;;
9815;SDS011;4947;44.526;11.360;2022-11-20T01:17:40;54.85;;;26.75;;
9815;SDS011;4947;44.526;11.360;2022-11-20T01:20:08;56.35;;;26.65;;
9815;SDS011;4947;44.526;11.360;2022-11-20T01:22:38;51.45;;;26.60;;
9815;SDS011;4947;44.526;11.360;2022-11-20T01:25:05;53.08;;;27.42;;
9815;SDS011;4947;44.526;11.360;2022-11-20T01:27:33;58.88;;;28.92;;
9815;SDS011;4947;44.526;11.360;2022-11-20T01:30:01;64.65;;;28.63;;
9815;SDS011;4947;44.526;11.360;2022-11-20T01:32:30;59.88;;;28.63;;
9815;SDS011;4947;44.526;11.360;2022-11-20T01:34:58;56.08;;;30.25;;
9815;SDS011;4947;44.526;11.360;2022-11-20T01:37:26;59.38;;;28.75;;
9815;SDS011;4947;44.526;11.360;2022-11-20T01:39:54;64.28;;;27.45;;
9815;SDS011;4947;44.526;11.360;2022-11-20T01:42:24;58.60;;;29.00;;
9815;SDS011;4947;44.526;11.360;2022-11-20T01:48:26;60.53;;;27.45;;
9815;SDS011;4947;44.526;11.360;2022-11-20T01:50:58;64.55;;;28.90;;
9815;SDS011;4947;44.526;11.360;2022-11-20T01:53:27;62.10;;;28.88;;
9815;SDS011;4947;44.526;11.360;2022-11-20T01:55:59;55.17;;;28.45;;
9815;SDS011;4947;44.526;11.360;2022-11-20T01:58:32;59.67;;;28.23;;
9815;SDS011;4947;44.526;11.360;2022-11-20T02:01:02;56.17;;;27.27;;
9815;SDS011;4947;44.526;11.360;2022-11-20T02:03:32;53.65;;;27.85;;
9815;SDS011;4947;44.526;11.360;2022-11-20T02:06:02;55.15;;;28.52;;
9815;SDS011;4947;44.526;11.360;2022-11-20T02:08:36;54.25;;;27.50;;
9815;SDS011;4947;44.526;11.360;2022-11-20T02:11:05;54.80;;;27.90;;
9815;SDS011;4947;44.526;11.360;2022-11-20T02:13:33;59.65;;;28.60;;
9815;SDS011;4947;44.526;11.360;2022-11-20T02:16:10;58.05;;;27.00;;
9815;SDS011;4947;44.526;11.360;2022-11-20T02:18:42;52.42;;;27.58;;
9815;SDS011;4947;44.526;11.360;2022-11-20T02:21:13;57.78;;;28.38;;
9815;SDS011;4947;44.526;11.360;2022-11-20T02:23:58;58.75;;;28.90;;
9815;SDS011;4947;44.526;11.360;2022-11-20T02:26:28;58.15;;;27.73;;
9815;SDS011;4947;44.526;11.360;2022-11-20T02:28:58;54.55;;;27.38;;
9815;SDS011;4947;44.526;11.360;2022-11-20T02:31:26;56.10;;;27.35;;
9815;SDS011;4947;44.526;11.360;2022-11-20T02:33:55;59.97;;;27.90;;
9815;SDS011;4947;44.526;11.360;2022-11-20T02:36:23;60.20;;;28.95;;
9815;SDS011;4947;44.526;11.360;2022-11-20T02:38:53;54.67;;;27.10;;
9815;SDS011;4947;44.526;11.360;2022-11-20T02:41:22;54.53;;;27.58;;
9815;SDS011;4947;44.526;11.360;2022-11-20T02:43:58;58.30;;;27.05;;
9815;SDS011;4947;44.526;11.360;2022-11-20T02:46:25;61.28;;;26.85;;
9815;SDS011;4947;44.526;11.360;2022-11-20T02:48:53;60.63;;;29.48;;
9815;SDS011;4947;44.526;11.360;2022-11-20T02:51:20;50.35;;;26.05;;
9815;SDS011;4947;44.526;11.360;2022-11-20T02:53:48;71.45;;;28.50;;
9815;SDS011;4947;44.526;11.360;2022-11-20T02:56:16;58.20;;;27.92;;
9815;SDS011;4947;44.526;11.360;2022-11-20T02:58:45;50.08;;;27.25;;
9815;SDS011;4947;44.526;11.360;2022-11-20T03:01:13;59.65;;;27.02;;
9815;SDS011;4947;44.526;11.360;2022-11-20T03:03:41;47.38;;;27.38;;
9815;SDS011;4947;44.526;11.360;2022-11-20T03:06:13;52.75;;;27.52;;
9815;SDS011;4947;44.526;11.360;2022-11-20T03:08:42;49.08;;;27.17;;
9815;SDS011;4947;44.526;11.360;2022-11-20T03:11:09;56.72;;;27.85;;
9815;SDS011;4947;44.526;11.360;2022-11-20T03:13:37;52.72;;;26.77;;
9815;SDS011;4947;44.526;11.360;2022-11-20T03:16:16;56.78;;;28.55;;
9815;SDS011;4947;44.526;11.360;2022-11-20T03:18:45;60.20;;;28.55;;
9815;SDS011;4947;44.526;11.360;2022-11-20T03:21:13;53.10;;;27.42;;
9815;SDS011;4947;44.526;11.360;2022-11-20T03:23:41;55.53;;;26.65;;
9815;SDS011;4947;44.526;11.360;2022-11-20T03:26:10;55.58;;;28.20;;
9815;SDS011;4947;44.526;11.360;2022-11-20T03:28:39;59.83;;;28.45;;
9815;SDS011;4947;44.526;11.360;2022-11-20T03:31:07;50.60;;;25.75;;
9815;SDS011;4947;44.526;11.360;2022-11-20T03:33:38;52.90;;;24.60;;
9815;SDS011;4947;44.526;11.360;2022-11-20T03:36:06;56.95;;;26.80;;
9815;SDS011;4947;44.526;11.360;2022-11-20T03:38:35;49.97;;;26.42;;
9815;SDS011;4947;44.526;11.360;2022-11-20T03:41:04;52.22;;;28.70;;
9815;SDS011;4947;44.526;11.360;2022-11-20T03:43:33;50.58;;;25.48;;
9815;SDS011;4947;44.526;11.360;2022-11-20T03:46:02;52.03;;;27.38;;
9815;SDS011;4947;44.526;11.360;2022-11-20T03:48:31;49.65;;;26.13;;
9815;SDS011;4947;44.526;11.360;2022-11-20T03:51:08;52.35;;;26.42;;
9815;SDS011;4947;44.526;11.360;2022-11-20T03:53:37;53.30;;;26.35;;
9815;SDS011;4947;44.526;11.360;2022-11-20T03:56:06;57.38;;;27.30;;
9815;SDS011;4947;44.526;11.360;2022-11-20T03:58:35;58.97;;;26.08;;
9815;SDS011;4947;44.526;11.360;2022-11-20T04:01:05;50.85;;;26.42;;
9815;SDS011;4947;44.526;11.360;2022-11-20T04:03:35;62.13;;;27.13;;
9815;SDS011;4947;44.526;11.360;2022-11-20T04:06:04;60.30;;;27.65;;
9815;SDS011;4947;44.526;11.360;2022-11-20T04:08:32;63.53;;;27.20;;
9815;SDS011;4947;44.526;11.360;2022-11-20T04:11:09;56.33;;;27.52;;
9815;SDS011;4947;44.526;11.360;2022-11-20T04:13:39;53.65;;;26.58;;
9815;SDS011;4947;44.526;11.360;2022-11-20T04:16:07;54.95;;;27.33;;
9815;SDS011;4947;44.526;11.360;2022-11-20T04:18:37;56.72;;;28.60;;
9815;SDS011;4947;44.526;11.360;2022-11-20T04:21:05;58.65;;;27.38;;
9815;SDS011;4947;44.526;11.360;2022-11-20T04:23:32;56.10;;;26.05;;
9815;SDS011;4947;44.526;11.360;2022-11-20T04:26:00;51.85;;;28.58;;
9815;SDS011;4947;44.526;11.360;2022-11-20T04:28:29;60.88;;;28.30;;
9815;SDS011;4947;44.526;11.360;2022-11-20T04:31:01;60.85;;;28.23;;
9815;SDS011;4947;44.526;11.360;2022-11-20T04:33:32;61.85;;;28.20;;
9815;SDS011;4947;44.526;11.360;2022-11-20T04:36:03;54.10;;;27.27;;
9815;SDS011;4947;44.526;11.360;2022-11-20T04:38:32;54.75;;;27.17;;
9815;SDS011;4947;44.526;11.360;2022-11-20T04:41:00;59.38;;;28.85;;
9815;SDS011;4947;44.526;11.360;2022-11-20T04:43:28;57.70;;;28.13;;
9815;SDS011;4947;44.526;11.360;2022-11-20T04:45:58;52.15;;;27.45;;
9815;SDS011;4947;44.526;11.360;2022-11-20T04:48:27;62.72;;;27.80;;
9815;SDS011;4947;44.526;11.360;2022-11-20T04:50:56;55.30;;;27.35;;
9815;SDS011;4947;44.526;11.360;2022-11-20T04:53:25;65.82;;;30.25;;
9815;SDS011;4947;44.526;11.360;2022-11-20T04:55:54;64.35;;;30.00;;
9815;SDS011;4947;44.526;11.360;2022-11-20T04:58:26;57.75;;;30.08;;
9815;SDS011;4947;44.526;11.360;2022-11-20T05:00:59;69.60;;;28.83;;
9815;SDS011;4947;44.526;11.360;2022-11-20T05:03:27;59.83;;;29.23;;
9815;SDS011;4947;44.526;11.360;2022-11-20T05:05:55;56.70;;;27.75;;
9815;SDS011;4947;44.526;11.360;2022-11-20T05:08:24;60.05;;;29.35;;
9815;SDS011;4947;44.526;11.360;2022-11-20T05:10:52;66.63;;;31.02;;
9815;SDS011;4947;44.526;11.360;2022-11-20T05:13:19;60.03;;;28.95;;
9815;SDS011;4947;44.526;11.360;2022-11-20T05:15:46;57.70;;;30.27;;
9815;SDS011;4947;44.526;11.360;2022-11-20T05:18:14;56.53;;;29.33;;
9815;SDS011;4947;44.526;11.360;2022-11-20T05:20:41;58.92;;;29.40;;
9815;SDS011;4947;44.526;11.360;2022-11-20T05:23:09;56.00;;;27.80;;
9815;SDS011;4947;44.526;11.360;2022-11-20T05:25:38;58.03;;;29.25;;
9815;SDS011;4947;44.526;11.360;2022-11-20T05:28:06;67.25;;;29.13;;
9815;SDS011;4947;44.526;11.360;2022-11-20T05:30:37;61.38;;;29.23;;
9815;SDS011;4947;44.526;11.360;2022-11-20T05:33:07;60.42;;;27.73;;
9815;SDS011;4947;44.526;11.360;2022-11-20T05:35:34;57.28;;;27.35;;
9815;SDS011;4947;44.526;11.360;2022-11-20T05:38:01;55.33;;;27.35;;
9815;SDS011;4947;44.526;11.360;2022-11-20T05:40:29;55.00;;;28.30;;
9815;SDS011;4947;44.526;11.360;2022-11-20T05:42:57;63.45;;;29.23;;
9815;SDS011;4947;44.526;11.360;2022-11-20T05:45:25;67.63;;;28.60;;
9815;SDS011;4947;44.526;11.360;2022-11-20T05:47:53;59.03;;;28.90;;
9815;SDS011;4947;44.526;11.360;2022-11-20T05:50:24;53.88;;;29.88;;
9815;SDS011;4947;44.526;11.360;2022-11-20T05:52:51;60.88;;;29.10;;
9815;SDS011;4947;44.526;11.360;2022-11-20T05:55:19;61.35;;;28.95;;
9815;SDS011;4947;44.526;11.360;2022-11-20T05:57:46;70.18;;;30.92;;
9815;SDS011;4947;44.526;11.360;2022-11-20T06:00:16;52.88;;;28.23;;
9815;SDS011;4947;44.526;11.360;2022-11-20T06:02:44;68.70;;;31.27;;
9815;SDS011;4947;44.526;11.360;2022-11-20T06:05:11;65.03;;;29.92;;
9815;SDS011;4947;44.526;11.360;2022-11-20T06:07:39;63.03;;;30.48;;
9815;SDS011;4947;44.526;11.360;2022-11-20T06:10:06;65.63;;;31.23;;
9815;SDS011;4947;44.526;11.360;2022-11-20T06:12:34;66.63;;;30.35;;
9815;SDS011;4947;44.526;11.360;2022-11-20T06:15:02;61.25;;;30.10;;
9815;SDS011;4947;44.526;11.360;2022-11-20T06:17:32;62.15;;;30.83;;
9815;SDS011;4947;44.526;11.360;2022-11-20T06:19:59;54.92;;;29.73;;
9815;SDS011;4947;44.526;11.360;2022-11-20T06:22:27;64.20;;;31.10;;
9815;SDS011;4947;44.526;11.360;2022-11-20T06:24:55;62.97;;;29.85;;
9815;SDS011;4947;44.526;11.360;2022-11-20T06:27:22;59.70;;;30.50;;
9815;SDS011;4947;44.526;11.360;2022-11-20T06:29:50;59.25;;;31.67;;
9815;SDS011;4947;44.526;11.360;2022-11-20T06:32:18;61.25;;;33.03;;
9815;SDS011;4947;44.526;11.360;2022-11-20T06:34:47;63.72;;;31.58;;
9815;SDS011;4947;44.526;11.360;2022-11-20T06:37:15;67.88;;;31.67;;
9815;SDS011;4947;44.526;11.360;2022-11-20T06:39:42;68.07;;;30.67;;
9815;SDS011;4947;44.526;11.360;2022-11-20T06:42:09;72.88;;;32.78;;
9815;SDS011;4947;44.526;11.360;2022-11-20T06:44:37;71.13;;;32.80;;
9815;SDS011;4947;44.526;11.360;2022-11-20T06:47:04;67.60;;;31.05;;
9815;SDS011;4947;44.526;11.360;2022-11-20T06:49:32;58.63;;;30.92;;
9815;SDS011;4947;44.526;11.360;2022-11-20T06:52:03;66.95;;;33.83;;
9815;SDS011;4947;44.526;11.360;2022-11-20T06:54:31;66.32;;;32.40;;
9815;SDS011;4947;44.526;11.360;2022-11-20T06:56:58;60.17;;;31.45;;
9815;SDS011;4947;44.526;11.360;2022-11-20T06:59:26;60.50;;;31.35;;
9815;SDS011;4947;44.526;11.360;2022-11-20T07:01:53;63.45;;;31.58;;
9815;SDS011;4947;44.526;11.360;2022-11-20T07:04:28;63.45;;;32.05;;
9815;SDS011;4947;44.526;11.360;2022-11-20T07:06:56;64.85;;;31.60;;
9815;SDS011;4947;44.526;11.360;2022-11-20T07:09:25;64.97;;;32.33;;
9815;SDS011;4947;44.526;11.360;2022-11-20T07:11:52;65.70;;;32.67;;
9815;SDS011;4947;44.526;11.360;2022-11-20T07:14:20;67.20;;;33.10;;
9815;SDS011;4947;44.526;11.360;2022-11-20T07:16:48;66.53;;;33.00;;
9815;SDS011;4947;44.526;11.360;2022-11-20T07:19:15;64.03;;;32.53;;
9815;SDS011;4947;44.526;11.360;2022-11-20T07:21:42;59.90;;;33.22;;
9815;SDS011;4947;44.526;11.360;2022-11-20T07:24:11;65.93;;;31.27;;
9815;SDS011;4947;44.526;11.360;2022-11-20T07:26:40;69.03;;;33.95;;
9815;SDS011;4947;44.526;11.360;2022-11-20T07:29:07;61.10;;;31.23;;
9815;SDS011;4947;44.526;11.360;2022-11-20T07:31:35;66.05;;;31.83;;
9815;SDS011;4947;44.526;11.360;2022-11-20T07:34:03;62.72;;;31.48;;
9815;SDS011;4947;44.526;11.360;2022-11-20T07:36:30;62.38;;;30.77;;
9815;SDS011;4947;44.526;11.360;2022-11-20T07:38:58;65.63;;;31.52;;
9815;SDS011;4947;44.526;11.360;2022-11-20T07:41:26;60.25;;;32.17;;
9815;SDS011;4947;44.526;11.360;2022-11-20T07:43:55;61.35;;;32.17;;
9815;SDS011;4947;44.526;11.360;2022-11-20T07:46:22;59.63;;;31.45;;
9815;SDS011;4947;44.526;11.360;2022-11-20T07:48:50;60.92;;;32.03;;
9815;SDS011;4947;44.526;11.360;2022-11-20T07:51:17;63.00;;;29.88;;
9815;SDS011;4947;44.526;11.360;2022-11-20T07:53:45;61.72;;;31.90;;
9815;SDS011;4947;44.526;11.360;2022-11-20T07:56:12;63.58;;;31.33;;
9815;SDS011;4947;44.526;11.360;2022-11-20T07:58:40;66.03;;;31.75;;
9815;SDS011;4947;44.526;11.360;2022-11-20T08:01:09;64.97;;;33.35;;
9815;SDS011;4947;44.526;11.360;2022-11-20T08:03:37;60.90;;;32.38;;
9815;SDS011;4947;44.526;11.360;2022-11-20T08:06:05;73.32;;;35.17;;
9815;SDS011;4947;44.526;11.360;2022-11-20T08:08:33;61.40;;;33.30;;
9815;SDS011;4947;44.526;11.360;2022-11-20T08:11:01;65.63;;;33.45;;
9815;SDS011;4947;44.526;11.360;2022-11-20T08:13:45;57.63;;;31.48;;
9815;SDS011;4947;44.526;11.360;2022-11-20T08:16:31;63.97;;;32.38;;
9815;SDS011;4947;44.526;11.360;2022-11-20T08:18:59;66.70;;;32.67;;
9815;SDS011;4947;44.526;11.360;2022-11-20T08:21:27;65.40;;;33.28;;
9815;SDS011;4947;44.526;11.360;2022-11-20T08:23:54;64.55;;;34.00;;
9815;SDS011;4947;44.526;11.360;2022-11-20T08:26:22;68.35;;;33.47;;
9815;SDS011;4947;44.526;11.360;2022-11-20T08:28:52;63.75;;;33.83;;
9815;SDS011;4947;44.526;11.360;2022-11-20T08:31:21;72.80;;;34.13;;
9815;SDS011;4947;44.526;11.360;2022-11-20T08:33:50;70.90;;;34.15;;
9815;SDS011;4947;44.526;11.360;2022-11-20T08:36:18;83.82;;;36.05;;
9815;SDS011;4947;44.526;11.360;2022-11-20T08:38:47;91.40;;;40.45;;
9815;SDS011;4947;44.526;11.360;2022-11-20T08:41:18;109.15;;;43.90;;
9815;SDS011;4947;44.526;11.360;2022-11-20T08:43:54;130.07;;;48.90;;
9815;SDS011;4947;44.526;11.360;2022-11-20T08:46:23;144.50;;;55.85;;
9815;SDS011;4947;44.526;11.360;2022-11-20T08:48:56;139.27;;;52.03;;
9815;SDS011;4947;44.526;11.360;2022-11-20T08:51:23;106.15;;;48.30;;
9815;SDS011;4947;44.526;11.360;2022-11-20T08:53:51;77.82;;;39.10;;
9815;SDS011;4947;44.526;11.360;2022-11-20T08:56:18;58.28;;;29.77;;
9815;SDS011;4947;44.526;11.360;2022-11-20T08:58:46;42.95;;;24.52;;
9815;SDS011;4947;44.526;11.360;2022-11-20T09:01:13;37.30;;;20.75;;
9815;SDS011;4947;44.526;11.360;2022-11-20T09:03:41;34.45;;;21.23;;
9815;SDS011;4947;44.526;11.360;2022-11-20T09:06:10;38.33;;;22.85;;
9815;SDS011;4947;44.526;11.360;2022-11-20T09:08:38;38.33;;;20.08;;
9815;SDS011;4947;44.526;11.360;2022-11-20T09:11:06;42.67;;;22.92;;
9815;SDS011;4947;44.526;11.360;2022-11-20T09:13:37;38.83;;;22.23;;
9815;SDS011;4947;44.526;11.360;2022-11-20T09:16:05;47.28;;;23.33;;
9815;SDS011;4947;44.526;11.360;2022-11-20T09:18:34;41.35;;;21.45;;
9815;SDS011;4947;44.526;11.360;2022-11-20T09:21:03;41.28;;;24.00;;
9815;SDS011;4947;44.526;11.360;2022-11-20T09:23:34;43.40;;;21.45;;
9815;SDS011;4947;44.526;11.360;2022-11-20T09:26:02;37.97;;;22.92;;
9815;SDS011;4947;44.526;11.360;2022-11-20T09:28:30;42.42;;;23.23;;
9815;SDS011;4947;44.526;11.360;2022-11-20T09:30:58;41.20;;;21.55;;
9815;SDS011;4947;44.526;11.360;2022-11-20T09:33:28;38.97;;;23.10;;
9815;SDS011;4947;44.526;11.360;2022-11-20T09:35:56;44.05;;;23.45;;
9815;SDS011;4947;44.526;11.360;2022-11-20T09:38:25;45.63;;;23.52;;
9815;SDS011;4947;44.526;11.360;2022-11-20T09:40:55;44.97;;;24.35;;
9815;SDS011;4947;44.526;11.360;2022-11-20T09:43:29;40.35;;;23.88;;
9815;SDS011;4947;44.526;11.360;2022-11-20T09:46:09;44.22;;;23.48;;
9815;SDS011;4947;44.526;11.360;2022-11-20T09:48:54;46.15;;;24.10;;
9815;SDS011;4947;44.526;11.360;2022-11-20T09:51:33;43.40;;;24.25;;
9815;SDS011;4947;44.526;11.360;2022-11-20T09:54:13;49.65;;;25.10;;
9815;SDS011;4947;44.526;11.360;2022-11-20T09:56:44;44.38;;;26.20;;
9815;SDS011;4947;44.526;11.360;2022-11-20T09:59:22;40.58;;;23.30;;
9815;SDS011;4947;44.526;11.360;2022-11-20T10:01:55;40.70;;;24.33;;
9815;SDS011;4947;44.526;11.360;2022-11-20T10:04:25;48.03;;;24.45;;
9815;SDS011;4947;44.526;11.360;2022-11-20T10:06:55;38.63;;;22.88;;
9815;SDS011;4947;44.526;11.360;2022-11-20T10:09:29;40.10;;;22.38;;
9815;SDS011;4947;44.526;11.360;2022-11-20T10:12:05;47.28;;;23.90;;
9815;SDS011;4947;44.526;11.360;2022-11-20T10:14:43;40.92;;;22.92;;
9815;SDS011;4947;44.526;11.360;2022-11-20T10:17:29;39.45;;;23.30;;
9815;SDS011;4947;44.526;11.360;2022-11-20T10:20:15;53.83;;;24.90;;
9815;SDS011;4947;44.526;11.360;2022-11-20T10:22:50;48.15;;;24.58;;
9815;SDS011;4947;44.526;11.360;2022-11-20T10:25:27;46.20;;;25.05;;
9815;SDS011;4947;44.526;11.360;2022-11-20T10:30:56;47.38;;;25.70;;
9815;SDS011;4947;44.526;11.360;2022-11-20T10:33:27;55.05;;;26.75;;
9815;SDS011;4947;44.526;11.360;2022-11-20T10:36:02;53.28;;;28.48;;
9815;SDS011;4947;44.526;11.360;2022-11-20T10:38:36;48.42;;;26.13;;
9815;SDS011;4947;44.526;11.360;2022-11-20T10:41:06;48.67;;;24.88;;
9815;SDS011;4947;44.526;11.360;2022-11-20T10:44:09;63.28;;;27.33;;
9815;SDS011;4947;44.526;11.360;2022-11-20T10:47:03;46.97;;;25.33;;
9815;SDS011;4947;44.526;11.360;2022-11-20T10:49:32;50.95;;;27.63;;
9815;SDS011;4947;44.526;11.360;2022-11-20T10:52:04;50.63;;;27.00;;
9815;SDS011;4947;44.526;11.360;2022-11-20T10:54:39;53.13;;;26.65;;
9815;SDS011;4947;44.526;11.360;2022-11-20T10:57:17;52.42;;;26.58;;
9815;SDS011;4947;44.526;11.360;2022-11-20T11:02:40;52.42;;;27.25;;
9815;SDS011;4947;44.526;11.360;2022-11-20T11:05:18;49.00;;;27.27;;
9815;SDS011;4947;44.526;11.360;2022-11-20T11:07:54;45.75;;;24.33;;
9815;SDS011;4947;44.526;11.360;2022-11-20T11:10:24;51.80;;;26.60;;
9815;SDS011;4947;44.526;11.360;2022-11-20T11:12:54;44.58;;;24.08;;
9815;SDS011;4947;44.526;11.360;2022-11-20T11:15:28;43.03;;;23.65;;
9815;SDS011;4947;44.526;11.360;2022-11-20T11:17:56;39.33;;;22.45;;
9815;SDS011;4947;44.526;11.360;2022-11-20T11:20:24;44.47;;;24.35;;
9815;SDS011;4947;44.526;11.360;2022-11-20T11:22:53;48.30;;;24.73;;
9815;SDS011;4947;44.526;11.360;2022-11-20T11:25:24;40.90;;;24.55;;
9815;SDS011;4947;44.526;11.360;2022-11-20T11:27:53;41.13;;;23.83;;
9815;SDS011;4947;44.526;11.360;2022-11-20T11:30:23;41.92;;;24.00;;
9815;SDS011;4947;44.526;11.360;2022-11-20T11:33:03;43.30;;;24.05;;
9815;SDS011;4947;44.526;11.360;2022-11-20T11:35:32;40.05;;;23.70;;
9815;SDS011;4947;44.526;11.360;2022-11-20T11:38:03;37.40;;;21.98;;
9815;SDS011;4947;44.526;11.360;2022-11-20T11:40:35;37.22;;;19.48;;
9815;SDS011;4947;44.526;11.360;2022-11-20T11:43:05;35.42;;;20.17;;
9815;SDS011;4947;44.526;11.360;2022-11-20T11:46:02;37.13;;;20.52;;
9815;SDS011;4947;44.526;11.360;2022-11-20T11:48:40;43.95;;;21.55;;
9815;SDS011;4947;44.526;11.360;2022-11-20T11:51:08;38.53;;;22.48;;
9815;SDS011;4947;44.526;11.360;2022-11-20T11:53:35;34.35;;;17.92;;
9815;SDS011;4947;44.526;11.360;2022-11-20T11:56:07;33.28;;;19.40;;
9815;SDS011;4947;44.526;11.360;2022-11-20T11:58:41;34.15;;;18.83;;
9815;SDS011;4947;44.526;11.360;2022-11-20T12:01:17;29.40;;;17.25;;
9815;SDS011;4947;44.526;11.360;2022-11-20T12:03:59;26.88;;;15.88;;
9815;SDS011;4947;44.526;11.360;2022-11-20T12:06:31;31.70;;;17.58;;
9815;SDS011;4947;44.526;11.360;2022-11-20T12:09:04;29.10;;;17.02;;
9815;SDS011;4947;44.526;11.360;2022-11-20T12:11:37;36.67;;;18.70;;
9815;SDS011;4947;44.526;11.360;2022-11-20T12:14:13;34.28;;;19.48;;
9815;SDS011;4947;44.526;11.360;2022-11-20T12:16:44;29.65;;;16.65;;
9815;SDS011;4947;44.526;11.360;2022-11-20T12:19:14;25.80;;;15.10;;
9815;SDS011;4947;44.526;11.360;2022-11-20T12:21:45;30.30;;;17.63;;
9815;SDS011;4947;44.526;11.360;2022-11-20T12:24:28;37.55;;;20.23;;
9815;SDS011;4947;44.526;11.360;2022-11-20T12:27:16;32.67;;;17.50;;
9815;SDS011;4947;44.526;11.360;2022-11-20T12:30:07;33.13;;;19.23;;
9815;SDS011;4947;44.526;11.360;2022-11-20T12:32:44;30.77;;;16.67;;
9815;SDS011;4947;44.526;11.360;2022-11-20T12:35:31;36.60;;;16.52;;
9815;SDS011;4947;44.526;11.360;2022-11-20T12:38:18;30.27;;;16.30;;
9815;SDS011;4947;44.526;11.360;2022-11-20T12:41:18;24.58;;;15.40;;
9815;SDS011;4947;44.526;11.360;2022-11-20T12:44:13;27.02;;;15.15;;
9815;SDS011;4947;44.526;11.360;2022-11-20T12:47:11;29.02;;;16.05;;
9815;SDS011;4947;44.526;11.360;2022-11-20T12:49:44;27.70;;;15.05;;
9815;SDS011;4947;44.526;11.360;2022-11-20T12:52:24;27.35;;;16.25;;
9815;SDS011;4947;44.526;11.360;2022-11-20T12:55:09;23.02;;;12.68;;
9815;SDS011;4947;44.526;11.360;2022-11-20T12:57:44;21.40;;;12.63;;
9815;SDS011;4947;44.526;11.360;2022-11-20T13:00:17;23.77;;;11.75;;
9815;SDS011;4947;44.526;11.360;2022-11-20T13:05:55;17.15;;;8.68;;
9815;SDS011;4947;44.526;11.360;2022-11-20T13:08:34;16.40;;;8.63;;
9815;SDS011;4947;44.526;11.360;2022-11-20T13:11:07;17.58;;;8.45;;
9815;SDS011;4947;44.526;11.360;2022-11-20T13:13:44;18.30;;;10.25;;
9815;SDS011;4947;44.526;11.360;2022-11-20T13:16:24;15.60;;;9.20;;
9815;SDS011;4947;44.526;11.360;2022-11-20T13:19:00;14.75;;;8.98;;
9815;SDS011;4947;44.526;11.360;2022-11-20T13:21:35;13.40;;;8.65;;
9815;SDS011;4947;44.526;11.360;2022-11-20T13:24:06;15.90;;;7.88;;
9815;SDS011;4947;44.526;11.360;2022-11-20T13:26:34;12.65;;;7.95;;
9815;SDS011;4947;44.526;11.360;2022-11-20T13:29:03;15.65;;;9.10;;
9815;SDS011;4947;44.526;11.360;2022-11-20T13:31:36;16.90;;;8.80;;
9815;SDS011;4947;44.526;11.360;2022-11-20T13:34:11;32.75;;;20.75;;
9815;SDS011;4947;44.526;11.360;2022-11-20T13:36:48;23.55;;;11.98;;
9815;SDS011;4947;44.526;11.360;2022-11-20T13:39:28;15.25;;;9.80;;
9815;SDS011;4947;44.526;11.360;2022-11-20T13:41:57;19.05;;;9.55;;
9815;SDS011;4947;44.526;11.360;2022-11-20T13:44:28;20.63;;;9.50;;
9815;SDS011;4947;44.526;11.360;2022-11-20T13:47:03;15.63;;;8.85;;
9815;SDS011;4947;44.526;11.360;2022-11-20T13:49:44;16.65;;;8.18;;
9815;SDS011;4947;44.526;11.360;2022-11-20T13:52:26;14.80;;;8.13;;
9815;SDS011;4947;44.526;11.360;2022-11-20T13:55:10;12.82;;;7.63;;
9815;SDS011;4947;44.526;11.360;2022-11-20T14:00:46;11.70;;;7.35;;
9815;SDS011;4947;44.526;11.360;2022-11-20T14:03:18;14.23;;;8.32;;
9815;SDS011;4947;44.526;11.360;2022-11-20T14:05:50;15.48;;;9.02;;
9815;SDS011;4947;44.526;11.360;2022-11-20T14:08:23;15.38;;;7.82;;
9815;SDS011;4947;44.526;11.360;2022-11-20T14:11:06;15.52;;;7.93;;
9815;SDS011;4947;44.526;11.360;2022-11-20T14:13:50;11.90;;;7.82;;
9815;SDS011;4947;44.526;11.360;2022-11-20T14:16:23;15.38;;;7.90;;
9815;SDS011;4947;44.526;11.360;2022-11-20T14:18:52;14.05;;;8.40;;
9815;SDS011;4947;44.526;11.360;2022-11-20T14:21:26;14.65;;;7.55;;
9815;SDS011;4947;44.526;11.360;2022-11-20T14:24:03;18.00;;;9.45;;
9815;SDS011;4947;44.526;11.360;2022-11-20T14:26:33;17.20;;;8.82;;
9815;SDS011;4947;44.526;11.360;2022-11-20T14:29:00;18.42;;;8.52;;
9815;SDS011;4947;44.526;11.360;2022-11-20T14:31:31;18.02;;;9.35;;
9815;SDS011;4947;44.526;11.360;2022-11-20T14:33:58;12.35;;;7.97;;
9815;SDS011;4947;44.526;11.360;2022-11-20T14:36:28;12.65;;;7.05;;
9815;SDS011;4947;44.526;11.360;2022-11-20T14:38:56;12.43;;;6.72;;
9815;SDS011;4947;44.526;11.360;2022-11-20T14:41:24;13.07;;;6.82;;
9815;SDS011;4947;44.526;11.360;2022-11-20T14:43:54;13.38;;;7.18;;
9815;SDS011;4947;44.526;11.360;2022-11-20T14:46:24;13.38;;;7.50;;
9815;SDS011;4947;44.526;11.360;2022-11-20T14:48:53;13.77;;;6.72;;
9815;SDS011;4947;44.526;11.360;2022-11-20T14:51:23;12.30;;;7.38;;
9815;SDS011;4947;44.526;11.360;2022-11-20T14:53:56;17.13;;;9.80;;
9815;SDS011;4947;44.526;11.360;2022-11-20T14:56:34;14.88;;;9.10;;
9815;SDS011;4947;44.526;11.360;2022-11-20T14:59:03;16.00;;;8.48;;
9815;SDS011;4947;44.526;11.360;2022-11-20T15:01:32;17.33;;;8.85;;
9815;SDS011;4947;44.526;11.360;2022-11-20T15:04:00;18.33;;;8.30;;
9815;SDS011;4947;44.526;11.360;2022-11-20T15:06:31;16.90;;;9.18;;
9815;SDS011;4947;44.526;11.360;2022-11-20T15:08:59;12.23;;;6.30;;
9815;SDS011;4947;44.526;11.360;2022-11-20T15:11:30;17.35;;;7.05;;
9815;SDS011;4947;44.526;11.360;2022-11-20T15:14:01;12.02;;;6.13;;
9815;SDS011;4947;44.526;11.360;2022-11-20T15:16:33;11.07;;;6.30;;